createdAt,value
2022-09-28T00:01:07.725Z,94893.84
2022-09-28T00:03:36.480Z,94889.41
2022-09-28T00:06:05.697Z,94892.09
2022-09-28T00:08:36.050Z,94882.41
2022-09-28T00:11:05.680Z,94881.56
2022-09-28T00:13:34.259Z,94881.72
2022-09-28T00:16:04.317Z,94871.25
2022-09-28T00:18:33.080Z,94869.44
2022-09-28T00:21:02.858Z,94850.84
2022-09-28T00:23:31.184Z,94863.50
2022-09-28T00:26:04.765Z,94853.19
2022-09-28T00:28:33.521Z,94857.00
2022-09-28T00:31:01.969Z,94843.19
2022-09-28T00:33:30.363Z,94842.75
2022-09-28T00:35:58.873Z,94830.28
2022-09-28T00:38:29.127Z,94821.50
2022-09-28T00:40:57.585Z,94812.56
2022-09-28T00:43:28.109Z,94814.09
2022-09-28T00:46:00.511Z,94810.03
2022-09-28T00:48:31.224Z,94804.41
2022-09-28T00:50:59.605Z,94802.34
2022-09-28T00:53:32.869Z,94799.06
2022-09-28T00:56:04.112Z,94794.00
2022-09-28T00:58:36.532Z,94787.28
2022-09-28T01:01:05.527Z,94781.16
2022-09-28T01:03:34.253Z,94774.63
2022-09-28T01:06:04.552Z,94771.09
2022-09-28T01:08:34.173Z,94765.59
2022-09-28T01:11:03.742Z,94761.84
2022-09-28T01:13:34.025Z,94765.53
2022-09-28T01:16:08.783Z,94752.22
2022-09-28T01:18:43.692Z,94742.28
2022-09-28T01:21:16.808Z,94747.72
2022-09-28T01:24:00.257Z,94750.09
2022-09-28T01:26:50.994Z,94743.63
2022-09-28T01:29:20.789Z,94740.78
2022-09-28T01:31:52.764Z,94740.47
2022-09-28T01:34:25.602Z,94731.38
2022-09-28T01:36:56.505Z,94733.16
2022-09-28T01:39:29.403Z,94725.63
2022-09-28T01:42:02.160Z,94720.09
2022-09-28T01:44:31.342Z,94710.22
2022-09-28T01:47:04.157Z,94711.75
2022-09-28T01:49:36.081Z,94704.47
2022-09-28T01:52:08.372Z,94696.16
2022-09-28T01:54:41.380Z,94689.13
2022-09-28T01:57:20.897Z,94685.78
2022-09-28T01:59:54.867Z,94688.84
2022-09-28T02:02:26.521Z,94686.88
2022-09-28T02:04:57.549Z,94682.63
2022-09-28T02:07:30.114Z,94671.28
2022-09-28T02:10:00.686Z,94660.03
2022-09-28T02:12:31.274Z,94647.47
2022-09-28T02:15:08.309Z,94642.00
2022-09-28T02:17:36.678Z,94643.34
2022-09-28T02:20:05.675Z,94638.44
2022-09-28T02:22:35.757Z,94627.16
2022-09-28T02:25:09.113Z,94619.19
2022-09-28T02:27:42.572Z,94611.41
2022-09-28T02:30:11.953Z,94612.94
2022-09-28T02:32:42.564Z,94612.13
2022-09-28T02:35:11.828Z,94608.28
2022-09-28T02:37:40.519Z,94609.94
2022-09-28T02:40:16.178Z,94601.38
2022-09-28T02:43:01.545Z,94595.41
2022-09-28T02:45:40.719Z,94595.22
2022-09-28T02:48:27.196Z,94585.13
2022-09-28T02:51:09.840Z,94586.28
2022-09-28T02:53:58.855Z,94582.94
2022-09-28T02:56:40.076Z,94577.25
2022-09-28T02:59:15.048Z,94582.91
2022-09-28T03:01:52.381Z,94574.88
2022-09-28T03:04:29.382Z,94573.91
2022-09-28T03:07:02.397Z,94565.97
2022-09-28T03:09:34.062Z,94557.88
2022-09-28T03:12:07.625Z,94553.53
2022-09-28T03:14:37.351Z,94553.41
2022-09-28T03:17:06.061Z,94537.28
2022-09-28T03:19:36.798Z,94535.19
2022-09-28T03:22:05.626Z,94539.97
2022-09-28T03:24:33.915Z,94536.75
2022-09-28T03:27:02.319Z,94538.47
2022-09-28T03:29:33.070Z,94536.50
2022-09-28T03:32:03.264Z,94540.34
2022-09-28T03:34:31.507Z,94544.91
2022-09-28T03:36:59.842Z,94545.78
2022-09-28T03:39:28.135Z,94539.03
2022-09-28T03:41:56.422Z,94534.16
2022-09-28T03:44:24.697Z,94520.91
2022-09-28T03:46:52.951Z,94523.78
2022-09-28T03:49:22.686Z,94522.28
2022-09-28T03:51:51.089Z,94513.69
2022-09-28T03:54:19.449Z,94508.47
2022-09-28T03:56:47.912Z,94506.41
2022-09-28T03:59:16.479Z,94506.06
2022-09-28T04:01:44.898Z,94501.28
2022-09-28T04:04:13.899Z,94496.97
2022-09-28T04:06:43.776Z,94501.13
2022-09-28T04:09:12.616Z,94493.09
2022-09-28T04:11:59.783Z,94498.63
2022-09-28T04:14:29.167Z,94499.81
2022-09-28T04:16:57.569Z,94488.53
2022-09-28T04:19:26.718Z,94494.94
2022-09-28T04:21:56.397Z,94495.31
2022-09-28T04:24:24.726Z,94491.63
2022-09-28T04:27:13.011Z,94490.13
2022-09-28T04:29:43.135Z,94487.75
2022-09-28T04:32:11.925Z,94483.94
2022-09-28T04:34:43.880Z,94474.94
2022-09-28T04:37:14.991Z,94475.78
2022-09-28T04:39:47.489Z,94479.38
2022-09-28T04:42:16.902Z,94469.88
2022-09-28T04:44:45.221Z,94468.72
2022-09-28T04:47:13.659Z,94466.16
2022-09-28T04:49:41.949Z,94470.94
2022-09-28T04:52:13.569Z,94469.88
2022-09-28T04:54:47.013Z,94473.88
2022-09-28T04:57:15.327Z,94469.81
2022-09-28T04:59:43.811Z,94483.03
2022-09-28T05:02:15.165Z,94477.00
2022-09-28T05:04:43.679Z,94480.19
2022-09-28T05:07:11.996Z,94482.84
2022-09-28T05:09:40.350Z,94483.72
2022-09-28T05:12:10.970Z,94492.56
2022-09-28T05:14:39.133Z,94488.44
2022-09-28T05:17:07.503Z,94485.34
2022-09-28T05:19:35.984Z,94482.59
2022-09-28T05:22:06.130Z,94479.56
2022-09-28T05:24:34.419Z,94485.34
2022-09-28T05:27:02.678Z,94479.31
2022-09-28T05:29:32.819Z,94482.44
2022-09-28T05:32:02.405Z,94480.38
2022-09-28T05:34:30.769Z,94476.31
2022-09-28T05:36:59.089Z,94474.91
2022-09-28T05:39:27.439Z,94475.66
2022-09-28T05:41:57.819Z,94474.59
2022-09-28T05:44:26.415Z,94456.03
2022-09-28T05:46:56.070Z,94445.19
2022-09-28T05:49:24.422Z,94439.84
2022-09-28T05:51:52.801Z,94434.69
2022-09-28T05:54:21.203Z,94412.47
2022-09-28T05:56:49.485Z,94411.56
2022-09-28T05:59:18.343Z,94425.50
2022-09-28T06:01:46.872Z,94409.22
2022-09-28T06:04:17.246Z,94402.00
2022-09-28T06:06:45.588Z,94404.22
2022-09-28T06:09:14.139Z,94407.03
2022-09-28T06:11:42.475Z,94422.50
2022-09-28T06:14:13.767Z,94406.91
2022-09-28T06:16:43.942Z,94417.41
2022-09-28T06:19:13.101Z,94427.97
2022-09-28T06:21:42.760Z,94415.28
2022-09-28T06:24:11.190Z,94408.91
2022-09-28T06:26:39.577Z,94410.59
2022-09-28T06:29:08.062Z,94418.44
2022-09-28T06:31:37.199Z,94432.94
2022-09-28T06:34:05.648Z,94417.38
2022-09-28T06:36:34.028Z,94419.16
2022-09-28T06:39:03.959Z,94408.44
2022-09-28T06:41:32.317Z,94401.81
2022-09-28T06:44:02.154Z,94401.66
2022-09-28T06:46:31.431Z,94398.09
2022-09-28T06:48:59.932Z,94408.59
2022-09-28T06:51:28.231Z,94401.03
2022-09-28T06:53:56.988Z,94398.94
2022-09-28T06:56:32.576Z,94397.59
2022-09-28T06:59:01.490Z,94401.44
2022-09-28T07:01:29.849Z,94401.69
2022-09-28T07:03:58.938Z,94403.97
2022-09-28T07:06:28.964Z,94405.34
2022-09-28T07:09:08.895Z,94409.72
2022-09-28T07:11:48.637Z,94409.22
2022-09-28T07:14:33.855Z,94427.13
2022-09-28T07:17:13.720Z,94420.28
2022-09-28T07:19:42.575Z,94432.81
2022-09-28T07:22:18.547Z,94433.00
2022-09-28T07:24:48.993Z,94440.94
2022-09-28T07:27:23.436Z,94438.75
2022-09-28T07:29:55.185Z,94435.56
2022-09-28T07:32:23.613Z,94438.47
2022-09-28T07:34:58.156Z,94432.75
2022-09-28T07:37:27.536Z,94436.28
2022-09-28T07:40:13.159Z,94437.34
2022-09-28T07:42:42.996Z,94425.41
2022-09-28T07:45:11.770Z,94436.56
2022-09-28T07:47:40.115Z,94433.91
2022-09-28T07:50:09.263Z,94435.28
2022-09-28T07:52:37.579Z,94440.41
2022-09-28T07:55:07.529Z,94444.88
2022-09-28T07:57:36.457Z,94450.19
2022-09-28T08:00:08.992Z,94448.44
2022-09-28T08:02:38.852Z,94446.84
2022-09-28T08:05:10.061Z,94454.63
2022-09-28T08:07:38.901Z,94454.16
2022-09-28T08:10:07.736Z,94455.81
2022-09-28T08:12:36.117Z,94460.59
2022-09-28T08:15:06.762Z,94457.34
2022-09-28T08:17:35.168Z,94461.88
2022-09-28T08:20:21.147Z,94472.91
2022-09-28T08:22:49.633Z,94478.91
2022-09-28T08:25:17.930Z,94467.59
2022-09-28T08:27:48.089Z,94477.97
2022-09-28T08:30:18.024Z,94479.78
2022-09-28T08:35:35.260Z,94481.72
2022-09-28T08:38:03.851Z,94480.81
2022-09-28T08:40:38.837Z,94488.38
2022-09-28T08:43:16.512Z,94473.28
2022-09-28T08:45:46.268Z,94469.00
2022-09-28T08:48:35.538Z,94477.00
2022-09-28T08:51:18.885Z,94482.97
2022-09-28T08:53:52.026Z,94484.38
2022-09-28T08:56:28.504Z,94496.25
2022-09-28T08:58:59.883Z,94507.41
2022-09-28T09:01:34.755Z,94534.56
2022-09-28T09:04:05.175Z,94542.41
2022-09-28T09:06:41.230Z,94545.44
2022-09-28T09:09:14.906Z,94557.59
2022-09-28T09:11:55.900Z,94578.13
2022-09-28T09:15:08.639Z,94579.00
2022-09-28T09:17:44.931Z,94582.84
2022-09-28T09:20:20.150Z,94595.13
2022-09-28T09:22:58.309Z,94597.44
2022-09-28T09:25:29.550Z,94599.50
2022-09-28T09:28:26.290Z,94592.06
2022-09-28T09:31:08.340Z,94598.50
2022-09-28T09:34:03.555Z,94583.94
2022-09-28T09:36:38.580Z,94581.09
2022-09-28T09:39:19.628Z,94583.47
2022-09-28T09:42:00.062Z,94594.75
2022-09-28T09:44:58.169Z,94580.19
2022-09-28T09:47:30.940Z,94582.06
2022-09-28T09:50:08.322Z,94579.84
2022-09-28T09:52:47.163Z,94585.16
2022-09-28T09:55:17.992Z,94591.19
2022-09-28T09:57:51.270Z,94603.19
2022-09-28T10:00:20.103Z,94592.34
2022-09-28T10:02:49.654Z,94594.22
2022-09-28T10:05:23.404Z,94595.97
2022-09-28T10:07:55.079Z,94599.25
2022-09-28T10:10:26.408Z,94606.22
2022-09-28T10:15:42.528Z,94603.56
2022-09-28T10:18:13.083Z,94597.09
2022-09-28T10:20:43.562Z,94602.88
2022-09-28T10:23:20.254Z,94597.06
2022-09-28T10:25:49.722Z,94594.03
2022-09-28T10:28:21.803Z,94604.56
2022-09-28T10:30:50.662Z,94598.09
2022-09-28T10:33:30.999Z,94601.63
2022-09-28T10:36:02.185Z,94609.00
2022-09-28T10:38:34.978Z,94606.28
2022-09-28T10:41:10.723Z,94610.25
2022-09-28T10:43:40.169Z,94612.97
2022-09-28T10:46:10.542Z,94623.00
2022-09-28T10:48:53.554Z,94624.88
2022-09-28T10:51:41.040Z,94635.03
2022-09-28T10:54:15.603Z,94628.34
2022-09-28T10:56:47.564Z,94633.78
2022-09-28T10:59:37.603Z,94633.81
2022-09-28T11:02:18.292Z,94623.69
2022-09-28T11:04:52.307Z,94627.84
2022-09-28T11:07:25.261Z,94634.78
2022-09-28T11:09:55.586Z,94634.09
2022-09-28T11:12:27.188Z,94638.75
2022-09-28T11:15:01.503Z,94635.00
2022-09-28T11:17:31.475Z,94632.63
2022-09-28T11:20:01.103Z,94636.25
2022-09-28T11:22:41.960Z,94636.91
2022-09-28T11:25:24.449Z,94642.69
2022-09-28T11:28:01.808Z,94639.84
2022-09-28T11:30:32.922Z,94650.94
2022-09-28T11:33:04.268Z,94656.00
2022-09-28T11:35:43.540Z,94658.25
2022-09-28T11:38:34.052Z,94663.13
2022-09-28T11:41:11.397Z,94660.03
2022-09-28T11:43:59.608Z,94668.50
2022-09-28T11:46:33.784Z,94652.09
2022-09-28T11:49:06.218Z,94650.09
2022-09-28T11:51:37.559Z,94653.22
2022-09-28T11:54:14.438Z,94658.53
2022-09-28T11:56:45.523Z,94650.00
2022-09-28T11:59:17.304Z,94653.38
2022-09-28T12:01:49.321Z,94656.28
2022-09-28T12:04:22.640Z,94673.66
2022-09-28T12:06:53.513Z,94690.00
2022-09-28T12:09:26.551Z,94667.97
2022-09-28T12:11:58.786Z,94661.06
2022-09-28T12:14:30.855Z,94666.25
2022-09-28T12:17:07.258Z,94667.22
2022-09-28T12:19:40.189Z,94662.91
2022-09-28T12:22:13.527Z,94660.56
2022-09-28T12:24:45.601Z,94668.13
2022-09-28T12:27:16.694Z,94667.50
2022-09-28T12:29:49.305Z,94649.50
2022-09-28T12:32:27.742Z,94648.66
2022-09-28T12:34:56.854Z,94674.50
2022-09-28T12:37:35.431Z,94673.72
2022-09-28T12:40:23.924Z,94669.19
2022-09-28T12:43:07.063Z,94668.06
2022-09-28T12:46:10.416Z,94665.88
2022-09-28T12:49:51.528Z,94669.97
2022-09-28T12:51:53.803Z,94670.06
2022-09-28T12:54:44.229Z,94680.63
2022-09-28T12:57:38.201Z,94692.78
2022-09-28T13:00:09.285Z,94679.88
2022-09-28T13:03:01.495Z,94676.03
2022-09-28T13:05:44.309Z,94683.94
2022-09-28T13:08:17.781Z,94685.38
2022-09-28T13:10:51.493Z,94681.31
2022-09-28T13:13:31.821Z,94667.19
2022-09-28T13:16:06.465Z,94678.38
2022-09-28T13:18:39.665Z,94687.72
2022-09-28T13:21:14.456Z,94685.94
2022-09-28T13:23:44.245Z,94677.47
2022-09-28T13:26:22.416Z,94678.00
2022-09-28T13:28:54.827Z,94679.19
2022-09-28T13:31:30.769Z,94677.72
2022-09-28T13:34:03.014Z,94681.81
2022-09-28T13:36:43.476Z,94677.34
2022-09-28T13:39:37.366Z,94665.75
2022-09-28T13:42:07.459Z,94668.56
2022-09-28T13:45:01.387Z,94656.06
2022-09-28T13:47:51.700Z,94657.84
2022-09-28T13:50:29.759Z,94663.63
2022-09-28T13:53:02.378Z,94663.81
2022-09-28T13:55:36.189Z,94666.72
2022-09-28T13:58:07.071Z,94669.41
2022-09-28T14:00:45.545Z,94667.63
2022-09-28T14:03:26.443Z,94674.28
2022-09-28T14:06:08.303Z,94671.56
2022-09-28T14:08:39.785Z,94670.25
2022-09-28T14:11:42.844Z,94675.16
2022-09-28T14:14:31.251Z,94678.97
2022-09-28T14:17:50.552Z,94680.25
2022-09-28T14:20:20.737Z,94682.28
2022-09-28T14:23:45.690Z,94671.31
2022-09-28T14:26:43.483Z,94667.25
2022-09-28T14:29:28.375Z,94664.97
2022-09-28T14:31:58.257Z,94667.44
2022-09-28T14:34:35.318Z,94666.34
2022-09-28T14:37:22.882Z,94668.25
2022-09-28T14:40:08.881Z,94669.25
2022-09-28T14:42:37.285Z,94664.47
2022-09-28T14:45:35.595Z,94659.78
2022-09-28T14:48:47.949Z,94663.09
2022-09-28T14:52:02.627Z,94670.03
2022-09-28T14:54:39.752Z,94669.47
2022-09-28T14:57:12.915Z,94668.53
2022-09-28T14:59:43.529Z,94676.34
2022-09-28T15:02:15.026Z,94675.88
2022-09-28T15:04:46.615Z,94673.91
2022-09-28T15:07:22.192Z,94679.31
2022-09-28T15:09:51.791Z,94676.16
2022-09-28T15:12:22.039Z,94667.66
2022-09-28T15:14:55.183Z,94682.00
2022-09-28T15:17:25.781Z,94668.13
2022-09-28T15:20:03.663Z,94666.13
2022-09-28T15:22:34.155Z,94666.34
2022-09-28T15:25:03.209Z,94672.22
2022-09-28T15:27:35.818Z,94676.63
2022-09-28T15:30:19.849Z,94673.03
2022-09-28T15:32:48.234Z,94681.06
2022-09-28T15:35:20.629Z,94674.44
2022-09-28T15:37:52.168Z,94677.25
2022-09-28T15:40:25.569Z,94690.69
2022-09-28T15:42:59.074Z,94690.53
2022-09-28T15:45:30.789Z,94690.06
2022-09-28T15:48:19.253Z,94699.91
2022-09-28T15:50:59.306Z,94701.97
2022-09-28T15:53:29.194Z,94708.44
2022-09-28T15:56:02.090Z,94702.97
2022-09-28T15:58:30.472Z,94716.97
2022-09-28T16:01:36.093Z,94720.03
2022-09-28T16:04:33.869Z,94722.31
2022-09-28T16:07:21.688Z,94713.50
2022-09-28T16:10:02.870Z,94720.69
2022-09-28T16:12:41.888Z,94729.56
2022-09-28T16:15:21.868Z,94727.19
2022-09-28T16:17:51.889Z,94736.50
2022-09-28T16:20:26.176Z,94734.16
2022-09-28T16:22:55.592Z,94727.63
2022-09-28T16:25:27.484Z,94736.34
2022-09-28T16:27:56.258Z,94731.38
2022-09-28T16:30:27.260Z,94740.19
2022-09-28T16:32:57.469Z,94744.09
2022-09-28T16:35:28.245Z,94745.66
2022-09-28T16:38:14.550Z,94744.63
2022-09-28T16:40:46.299Z,94738.69
2022-09-28T16:43:20.785Z,94739.25
2022-09-28T16:45:50.217Z,94727.34
2022-09-28T16:48:19.358Z,94731.13
2022-09-28T16:50:47.652Z,94725.22
2022-09-28T16:53:34.758Z,94724.88
2022-09-28T16:56:05.467Z,94719.28
2022-09-28T16:58:33.734Z,94717.03
2022-09-28T17:01:02.321Z,94717.31
2022-09-28T17:03:30.973Z,94720.47
2022-09-28T17:05:59.274Z,94706.66
2022-09-28T17:08:27.769Z,94717.03
2022-09-28T17:11:17.002Z,94713.31
2022-09-28T17:13:47.875Z,94723.00
2022-09-28T17:16:18.248Z,94723.59
2022-09-28T17:18:46.965Z,94735.75
2022-09-28T17:21:16.583Z,94736.81
2022-09-28T17:23:45.042Z,94736.22
2022-09-28T17:26:20.026Z,94739.34
2022-09-28T17:28:50.195Z,94743.69
2022-09-28T17:31:18.735Z,94746.53
2022-09-28T17:33:47.200Z,94746.94
2022-09-28T17:36:17.471Z,94747.47
2022-09-28T17:38:46.950Z,94736.34
2022-09-28T17:41:20.221Z,94745.97
2022-09-28T17:43:50.778Z,94747.19
2022-09-28T17:46:27.719Z,94748.53
2022-09-28T17:48:59.480Z,94741.00
2022-09-28T17:51:30.121Z,94737.03
2022-09-28T17:53:59.083Z,94732.28
2022-09-28T17:56:31.615Z,94738.31
2022-09-28T17:59:03.844Z,94748.97
2022-09-28T18:01:34.392Z,94738.84
2022-09-28T18:04:04.196Z,94737.22
2022-09-28T18:06:33.771Z,94739.69
2022-09-28T18:09:02.917Z,94747.44
2022-09-28T18:11:31.447Z,94747.28
2022-09-28T18:14:01.403Z,94745.94
2022-09-28T18:16:29.934Z,94740.25
2022-09-28T18:18:59.907Z,94746.56
2022-09-28T18:21:28.705Z,94754.53
2022-09-28T18:23:57.036Z,94748.66
2022-09-28T18:26:25.424Z,94756.69
2022-09-28T18:28:55.737Z,94758.78
2022-09-28T18:31:25.499Z,94766.22
2022-09-28T18:33:59.017Z,94757.88
2022-09-28T18:36:30.343Z,94768.56
2022-09-28T18:38:59.689Z,94769.91
2022-09-28T18:41:28.439Z,94776.75
2022-09-28T18:44:00.715Z,94784.41
2022-09-28T18:46:36.342Z,94786.84
2022-09-28T18:49:05.075Z,94786.88
2022-09-28T18:51:33.372Z,94797.28
2022-09-28T18:54:06.029Z,94801.38
2022-09-28T18:56:36.713Z,94804.84
2022-09-28T18:59:08.662Z,94805.91
2022-09-28T19:01:41.683Z,94804.81
2022-09-28T19:04:11.497Z,94808.78
2022-09-28T19:06:41.575Z,94821.78
2022-09-28T19:09:10.253Z,94831.69
2022-09-28T19:11:38.808Z,94827.28
2022-09-28T19:14:07.149Z,94824.47
2022-09-28T19:16:35.469Z,94818.31
2022-09-28T19:19:06.541Z,94821.84
2022-09-28T19:21:34.981Z,94829.06
2022-09-28T19:24:04.409Z,94826.63
2022-09-28T19:26:33.231Z,94822.97
2022-09-28T19:29:02.843Z,94825.75
2022-09-28T19:31:32.587Z,94834.22
2022-09-28T19:34:01.158Z,94832.88
2022-09-28T19:36:31.094Z,94831.88
2022-09-28T19:39:02.944Z,94835.03
2022-09-28T19:41:51.244Z,94837.09
2022-09-28T19:44:25.773Z,94843.28
2022-09-28T19:46:55.274Z,94844.75
2022-09-28T19:49:24.686Z,94841.28
2022-09-28T19:52:13.967Z,94851.50
2022-09-28T19:54:45.313Z,94858.13
2022-09-28T19:57:15.822Z,94860.03
2022-09-28T19:59:44.555Z,94866.41
2022-09-28T20:02:14.134Z,94872.56
2022-09-28T20:04:42.695Z,94869.97
2022-09-28T20:07:12.643Z,94880.84
2022-09-28T20:09:41.085Z,94870.63
2022-09-28T20:12:09.726Z,94880.38
2022-09-28T20:14:40.289Z,94874.34
2022-09-28T20:17:09.031Z,94889.41
2022-09-28T20:19:37.464Z,94880.84
2022-09-28T20:22:06.055Z,94882.50
2022-09-28T20:24:35.780Z,94885.66
2022-09-28T20:27:04.223Z,94883.41
2022-09-28T20:29:33.334Z,94897.03
2022-09-28T20:32:03.967Z,94891.63
2022-09-28T20:34:33.587Z,94895.81
2022-09-28T20:37:02.360Z,94884.50
2022-09-28T20:39:30.671Z,94888.59
2022-09-28T20:42:00.367Z,94891.16
2022-09-28T20:44:28.997Z,94895.94
2022-09-28T20:46:57.299Z,94895.25
2022-09-28T20:49:27.191Z,94901.81
2022-09-28T20:51:55.835Z,94897.38
2022-09-28T20:54:24.221Z,94894.84
2022-09-28T20:56:53.068Z,94899.31
2022-09-28T20:59:25.944Z,94898.41
2022-09-28T21:01:54.346Z,94896.63
2022-09-28T21:04:22.638Z,94894.22
2022-09-28T21:06:50.911Z,94903.06
2022-09-28T21:09:19.272Z,94894.28
2022-09-28T21:11:48.078Z,94901.50
2022-09-28T21:14:16.491Z,94902.06
2022-09-28T21:16:46.300Z,94905.00
2022-09-28T21:19:14.747Z,94901.59
2022-09-28T21:21:43.157Z,94902.63
2022-09-28T21:24:11.839Z,94903.88
2022-09-28T21:26:40.296Z,94903.94
2022-09-28T21:29:12.162Z,94908.19
2022-09-28T21:31:42.287Z,94904.50
2022-09-28T21:34:13.769Z,94910.09
2022-09-28T21:36:43.457Z,94914.91
2022-09-28T21:39:12.124Z,94911.31
2022-09-28T21:44:26.562Z,94913.06
2022-09-28T21:46:54.854Z,94910.75
2022-09-28T21:49:24.548Z,94920.47
2022-09-28T21:51:52.929Z,94912.72
2022-09-28T21:54:21.361Z,94907.47
2022-09-28T21:56:49.683Z,94913.84
2022-09-28T21:59:18.051Z,94912.28
2022-09-28T22:01:48.125Z,94906.31
2022-09-28T22:04:16.697Z,94911.81
2022-09-28T22:06:46.465Z,94910.78
2022-09-28T22:09:14.798Z,94908.56
2022-09-28T22:11:43.141Z,94909.13
2022-09-28T22:14:11.968Z,94908.47
2022-09-28T22:16:40.708Z,94916.47
2022-09-28T22:19:09.060Z,94916.63
2022-09-28T22:21:37.497Z,94915.66
2022-09-28T22:24:08.530Z,94914.56
2022-09-28T22:26:38.332Z,94912.38
2022-09-28T22:29:07.928Z,94915.19
2022-09-28T22:31:38.402Z,94914.22
2022-09-28T22:34:07.055Z,94921.16
2022-09-28T22:36:35.664Z,94922.59
2022-09-28T22:39:04.619Z,94922.53
2022-09-28T22:41:34.600Z,94921.88
2022-09-28T22:44:03.107Z,94925.06
2022-09-28T22:46:32.563Z,94921.06
2022-09-28T22:49:01.692Z,94921.16
2022-09-28T22:51:31.691Z,94925.84
2022-09-28T22:54:00.301Z,94925.34
2022-09-28T22:56:28.970Z,94921.53
2022-09-28T22:58:59.090Z,94923.50
2022-09-28T23:01:29.246Z,94918.78
2022-09-28T23:03:58.766Z,94917.44
2022-09-28T23:06:29.071Z,94914.50
2022-09-28T23:08:57.892Z,94922.13
2022-09-28T23:11:26.254Z,94926.09
2022-09-28T23:13:56.066Z,94921.50
2022-09-28T23:16:26.766Z,94929.19
2022-09-28T23:18:56.097Z,94926.06
2022-09-28T23:21:25.721Z,94928.38
2022-09-28T23:23:56.259Z,94915.34
2022-09-28T23:26:24.835Z,94911.22
2022-09-28T23:28:53.636Z,94918.34
2022-09-28T23:31:23.247Z,94912.22
2022-09-28T23:33:53.090Z,94925.47
2022-09-28T23:36:21.404Z,94914.84
2022-09-28T23:38:49.720Z,94917.66
2022-09-28T23:41:18.038Z,94914.09
2022-09-28T23:43:46.473Z,94907.16
2022-09-28T23:46:20.305Z,94897.75
2022-09-28T23:48:49.299Z,94903.94
2022-09-28T23:51:19.030Z,94901.47
2022-09-28T23:53:47.697Z,94912.06
2022-09-28T23:56:15.930Z,94912.75
2022-09-28T23:58:44.430Z,94919.00
